createdAt,value
2022-07-31T00:08:08.211Z,2.72
2022-07-31T00:10:34.657Z,2.70
2022-07-31T00:13:01.043Z,2.30
2022-07-31T00:15:27.391Z,2.45
2022-07-31T00:17:53.755Z,2.40
2022-07-31T00:20:20.223Z,2.33
2022-07-31T00:22:48.948Z,2.90
2022-07-31T00:25:16.303Z,2.67
2022-07-31T00:27:43.033Z,2.85
2022-07-31T00:30:12.788Z,2.50
2022-07-31T00:32:39.207Z,2.65
2022-07-31T00:35:06.881Z,2.28
2022-07-31T00:37:36.232Z,2.63
2022-07-31T00:40:05.729Z,2.60
2022-07-31T00:42:32.408Z,2.50
2022-07-31T00:44:58.776Z,2.50
2022-07-31T00:47:25.763Z,2.45
2022-07-31T00:49:52.423Z,2.65
2022-07-31T00:52:19.105Z,2.40
2022-07-31T00:54:45.724Z,2.78
2022-07-31T00:57:12.120Z,2.58
2022-07-31T00:59:38.523Z,2.70
2022-07-31T01:02:04.912Z,2.70
2022-07-31T01:04:31.558Z,2.78
2022-07-31T01:06:58.964Z,2.88
2022-07-31T01:09:25.316Z,2.70
2022-07-31T01:12:00.609Z,2.55
2022-07-31T01:14:31.102Z,2.92
2022-07-31T01:17:01.739Z,2.53
2022-07-31T01:19:42.801Z,2.45
2022-07-31T01:22:49.399Z,2.60
2022-07-31T01:25:39.936Z,2.95
2022-07-31T01:28:09.309Z,3.33
2022-07-31T01:30:41.822Z,3.25
2022-07-31T01:33:12.164Z,2.95
2022-07-31T01:35:43.414Z,2.92
2022-07-31T01:38:19.992Z,2.75
2022-07-31T01:40:50.600Z,3.38
2022-07-31T01:43:24.877Z,3.10
2022-07-31T01:45:55.552Z,3.00
2022-07-31T01:48:23.065Z,3.20
2022-07-31T01:50:52.767Z,2.78
2022-07-31T01:53:22.661Z,3.60
2022-07-31T01:56:02.194Z,3.33
2022-07-31T01:58:34.954Z,3.00
2022-07-31T02:01:03.803Z,3.35
2022-07-31T02:03:44.432Z,2.90
2022-07-31T02:06:14.994Z,3.08
2022-07-31T02:08:44.952Z,2.70
2022-07-31T02:11:11.405Z,3.55
2022-07-31T02:13:38.222Z,3.00
2022-07-31T02:16:05.618Z,2.88
2022-07-31T02:18:34.047Z,3.25
2022-07-31T02:21:01.099Z,3.03
2022-07-31T02:23:27.541Z,2.90
2022-07-31T02:25:54.630Z,3.22
2022-07-31T02:28:22.126Z,3.35
2022-07-31T02:30:50.172Z,3.00
2022-07-31T02:33:20.966Z,2.88
2022-07-31T02:35:53.753Z,3.17
2022-07-31T02:38:26.244Z,3.15
2022-07-31T02:40:58.478Z,3.22
2022-07-31T02:43:27.355Z,2.90
2022-07-31T02:45:56.341Z,3.13
2022-07-31T02:48:24.702Z,3.00
2022-07-31T02:50:51.560Z,2.80
2022-07-31T02:53:18.582Z,3.10
2022-07-31T02:55:45.455Z,2.75
2022-07-31T02:58:12.055Z,2.78
2022-07-31T03:00:38.708Z,2.75
2022-07-31T03:03:06.020Z,3.00
2022-07-31T03:05:32.549Z,2.30
2022-07-31T03:07:59.294Z,2.38
2022-07-31T03:10:25.759Z,2.60
2022-07-31T03:12:54.804Z,2.60
2022-07-31T03:15:25.407Z,2.55
2022-07-31T03:17:53.592Z,2.58
2022-07-31T03:20:21.056Z,3.13
2022-07-31T03:22:48.400Z,3.55
2022-07-31T03:25:21.120Z,3.60
2022-07-31T03:27:52.718Z,3.35
2022-07-31T03:30:25.108Z,3.40
2022-07-31T03:32:53.080Z,3.28
2022-07-31T03:35:19.693Z,4.00
2022-07-31T03:37:46.209Z,4.05
2022-07-31T03:40:13.220Z,4.05
2022-07-31T03:42:40.115Z,3.80
2022-07-31T03:45:08.345Z,3.85
2022-07-31T03:47:35.248Z,3.53
2022-07-31T03:50:02.176Z,3.55
2022-07-31T03:52:30.094Z,3.80
2022-07-31T03:54:56.545Z,3.33
2022-07-31T03:57:26.988Z,3.80
2022-07-31T03:59:57.996Z,3.50
2022-07-31T04:02:28.593Z,3.60
2022-07-31T04:04:55.720Z,3.67
2022-07-31T04:07:22.089Z,3.50
2022-07-31T04:09:48.566Z,3.35
2022-07-31T04:12:15.065Z,3.80
2022-07-31T04:14:41.488Z,4.00
2022-07-31T04:17:08.456Z,3.58
2022-07-31T04:19:35.048Z,3.90
2022-07-31T04:22:02.418Z,3.60
2022-07-31T04:24:29.057Z,3.33
2022-07-31T04:26:55.830Z,3.60
2022-07-31T04:29:22.341Z,3.72
2022-07-31T04:31:48.788Z,3.70
2022-07-31T04:34:15.224Z,3.40
2022-07-31T04:36:41.658Z,4.10
2022-07-31T04:39:08.092Z,4.05
2022-07-31T04:41:34.501Z,3.50
2022-07-31T04:44:00.910Z,3.47
2022-07-31T04:46:27.462Z,3.28
2022-07-31T04:48:53.894Z,3.15
2022-07-31T04:51:22.612Z,3.67
2022-07-31T04:53:50.500Z,3.30
2022-07-31T04:56:33.744Z,3.20
2022-07-31T04:59:01.938Z,3.53
2022-07-31T05:01:28.380Z,3.33
2022-07-31T05:03:55.046Z,3.40
2022-07-31T05:06:21.648Z,3.58
2022-07-31T05:08:48.160Z,3.13
2022-07-31T05:11:23.432Z,3.90
2022-07-31T05:13:58.245Z,3.42
2022-07-31T05:16:26.803Z,3.45
2022-07-31T05:18:54.006Z,3.60
2022-07-31T05:21:21.337Z,3.42
2022-07-31T05:23:49.120Z,3.30
2022-07-31T05:26:17.484Z,4.30
2022-07-31T05:28:44.295Z,4.07
2022-07-31T05:31:13.209Z,3.70
2022-07-31T05:33:40.675Z,3.13
2022-07-31T05:36:07.472Z,3.72
2022-07-31T05:38:34.353Z,3.25
2022-07-31T05:41:00.842Z,3.17
2022-07-31T05:43:27.761Z,3.40
2022-07-31T05:45:54.318Z,3.38
2022-07-31T05:48:20.871Z,3.50
2022-07-31T05:50:49.297Z,3.47
2022-07-31T05:53:15.943Z,3.15
2022-07-31T05:55:46.419Z,3.30
2022-07-31T05:58:16.788Z,3.20
2022-07-31T06:00:45.132Z,4.10
2022-07-31T06:03:12.460Z,3.03
2022-07-31T06:05:39.994Z,3.10
2022-07-31T06:08:06.625Z,2.55
2022-07-31T06:10:35.838Z,2.95
2022-07-31T06:13:02.211Z,3.15
2022-07-31T06:15:31.050Z,2.97
2022-07-31T06:17:59.966Z,3.53
2022-07-31T06:20:26.443Z,3.08
2022-07-31T06:22:54.195Z,3.28
2022-07-31T06:25:20.725Z,3.30
2022-07-31T06:27:56.481Z,3.45
2022-07-31T06:30:26.365Z,3.00
2022-07-31T06:32:52.797Z,3.03
2022-07-31T06:35:19.180Z,3.33
2022-07-31T06:37:45.618Z,3.00
2022-07-31T06:40:12.663Z,3.25
2022-07-31T06:42:39.179Z,3.10
2022-07-31T06:45:06.536Z,3.20
2022-07-31T06:47:33.045Z,2.90
2022-07-31T06:49:59.437Z,3.00
2022-07-31T06:52:25.888Z,2.90
2022-07-31T06:54:52.331Z,2.60
2022-07-31T06:57:18.821Z,3.13
2022-07-31T06:59:45.424Z,2.85
2022-07-31T07:02:11.860Z,2.83
2022-07-31T07:07:31.795Z,3.10
2022-07-31T07:09:58.652Z,3.40
2022-07-31T07:12:25.098Z,3.15
2022-07-31T07:14:53.298Z,3.58
2022-07-31T07:17:19.660Z,3.90
2022-07-31T07:19:46.032Z,3.90
2022-07-31T07:22:31.836Z,3.88
2022-07-31T07:24:59.534Z,3.83
2022-07-31T07:27:25.915Z,4.03
2022-07-31T07:29:52.345Z,3.25
2022-07-31T07:32:18.680Z,3.95
2022-07-31T07:34:45.029Z,3.28
2022-07-31T07:37:12.358Z,3.22
2022-07-31T07:39:38.711Z,2.80
2022-07-31T07:42:05.487Z,2.72
2022-07-31T07:44:31.997Z,2.50
2022-07-31T07:46:58.385Z,2.35
2022-07-31T07:49:24.815Z,2.47
2022-07-31T07:51:59.132Z,2.63
2022-07-31T07:54:26.708Z,2.47
2022-07-31T07:56:55.046Z,2.45
2022-07-31T07:59:21.845Z,2.50
2022-07-31T08:01:48.311Z,2.30
2022-07-31T08:04:14.721Z,2.20
2022-07-31T08:06:41.118Z,2.30
2022-07-31T08:09:07.602Z,2.40
2022-07-31T08:11:34.163Z,2.67
2022-07-31T08:14:00.539Z,2.42
2022-07-31T08:16:26.965Z,2.65
2022-07-31T08:18:54.671Z,2.35
2022-07-31T08:21:21.749Z,2.30
2022-07-31T08:23:48.278Z,2.55
2022-07-31T08:26:14.692Z,2.60
2022-07-31T08:28:41.542Z,2.42
2022-07-31T08:31:16.801Z,2.58
2022-07-31T08:33:43.193Z,2.67
2022-07-31T08:36:09.832Z,2.75
2022-07-31T08:38:37.000Z,2.22
2022-07-31T08:41:03.489Z,3.28
2022-07-31T08:44:02.477Z,2.20
2022-07-31T08:46:17.494Z,3.53
2022-07-31T08:48:45.798Z,3.03
2022-07-31T08:51:13.630Z,3.00
2022-07-31T08:53:42.557Z,3.03
2022-07-31T08:56:09.365Z,2.78
2022-07-31T08:58:39.322Z,2.60
2022-07-31T09:01:08.065Z,2.72
2022-07-31T09:03:35.973Z,2.95
2022-07-31T09:06:02.823Z,2.70
2022-07-31T09:08:36.024Z,2.47
2022-07-31T09:11:11.978Z,2.60
2022-07-31T09:13:39.215Z,2.38
2022-07-31T09:16:06.292Z,2.90
2022-07-31T09:18:33.293Z,2.40
2022-07-31T09:21:05.820Z,2.75
2022-07-31T09:23:32.795Z,2.22
2022-07-31T09:26:05.990Z,2.60
2022-07-31T09:28:39.546Z,2.50
2022-07-31T09:31:07.617Z,2.88
2022-07-31T09:33:34.121Z,3.13
2022-07-31T09:36:00.541Z,3.35
2022-07-31T09:38:36.615Z,2.70
2022-07-31T09:41:56.837Z,2.90
2022-07-31T09:44:09.333Z,2.45
2022-07-31T09:46:43.346Z,2.47
2022-07-31T09:49:10.045Z,2.92
2022-07-31T09:51:41.771Z,3.20
2022-07-31T09:54:19.179Z,3.05
2022-07-31T09:56:46.743Z,2.80
2022-07-31T09:59:13.097Z,3.35
2022-07-31T10:01:41.432Z,3.15
2022-07-31T10:04:08.373Z,2.97
2022-07-31T10:06:35.954Z,2.80
2022-07-31T10:09:04.271Z,2.65
2022-07-31T10:11:32.387Z,3.08
2022-07-31T10:14:04.499Z,2.45
2022-07-31T10:16:36.330Z,2.72
2022-07-31T10:19:11.136Z,3.08
2022-07-31T10:24:10.401Z,2.47
2022-07-31T10:26:59.334Z,3.03
2022-07-31T10:29:24.687Z,2.50
2022-07-31T10:31:51.493Z,2.72
2022-07-31T10:34:18.396Z,2.33
2022-07-31T10:36:48.752Z,2.22
2022-07-31T10:39:35.631Z,2.55
2022-07-31T10:42:30.698Z,2.63
2022-07-31T10:45:10.011Z,2.65
2022-07-31T10:47:36.899Z,2.30
2022-07-31T10:50:04.844Z,2.20
2022-07-31T10:52:35.721Z,2.17
2022-07-31T10:55:13.977Z,2.25
2022-07-31T10:57:56.040Z,2.33
2022-07-31T11:00:28.248Z,2.10
2022-07-31T11:02:56.265Z,2.08
2022-07-31T11:05:27.955Z,2.50
2022-07-31T11:08:03.045Z,2.40
2022-07-31T11:10:30.606Z,1.98
2022-07-31T11:13:00.850Z,2.10
2022-07-31T11:15:27.330Z,2.08
2022-07-31T11:18:21.916Z,2.17
2022-07-31T11:20:43.036Z,1.88
2022-07-31T11:23:10.010Z,2.03
2022-07-31T11:25:37.497Z,1.90
2022-07-31T11:28:24.704Z,1.90
2022-07-31T11:30:59.845Z,2.00
2022-07-31T11:33:43.005Z,1.90
2022-07-31T11:36:12.519Z,2.00
2022-07-31T11:38:41.512Z,1.90
2022-07-31T11:41:08.923Z,2.00
2022-07-31T11:43:40.051Z,1.73
2022-07-31T11:46:06.422Z,1.85
2022-07-31T11:48:43.450Z,1.70
2022-07-31T11:51:18.246Z,2.03
2022-07-31T11:53:45.082Z,1.73
2022-07-31T11:56:12.123Z,1.80
2022-07-31T11:58:41.152Z,1.50
2022-07-31T12:01:07.655Z,1.80
2022-07-31T12:03:38.556Z,1.90
2022-07-31T12:06:07.279Z,1.90
2022-07-31T12:08:37.119Z,2.00
2022-07-31T12:11:05.679Z,2.08
2022-07-31T12:13:34.732Z,2.05
2022-07-31T12:16:11.268Z,2.17
2022-07-31T12:18:52.747Z,1.85
2022-07-31T12:21:20.451Z,1.80
2022-07-31T12:23:49.489Z,1.80
2022-07-31T12:26:24.420Z,1.52
2022-07-31T12:29:11.597Z,2.05
2022-07-31T12:31:48.082Z,1.85
2022-07-31T12:34:30.775Z,1.83
2022-07-31T12:37:22.015Z,1.90
2022-07-31T12:39:59.942Z,1.77
2022-07-31T12:42:40.998Z,2.50
2022-07-31T12:45:17.984Z,1.70
2022-07-31T12:47:45.938Z,1.90
2022-07-31T12:50:19.973Z,1.73
2022-07-31T12:52:46.320Z,1.70
2022-07-31T12:55:12.703Z,1.70
2022-07-31T12:57:44.642Z,1.55
2022-07-31T13:00:19.178Z,1.95
2022-07-31T13:02:45.631Z,1.80
2022-07-31T13:05:12.060Z,1.90
2022-07-31T13:07:38.528Z,1.83
2022-07-31T13:10:21.559Z,1.50
2022-07-31T13:12:51.228Z,1.50
2022-07-31T13:15:18.584Z,1.50
2022-07-31T13:17:48.049Z,1.38
2022-07-31T13:20:17.413Z,1.88
2022-07-31T13:22:43.849Z,1.70
2022-07-31T13:25:10.277Z,1.50
2022-07-31T13:27:36.738Z,1.55
2022-07-31T13:30:05.187Z,1.60
2022-07-31T13:32:31.740Z,1.35
2022-07-31T13:35:26.911Z,1.50
2022-07-31T13:37:46.344Z,1.33
2022-07-31T13:40:13.262Z,1.33
2022-07-31T13:42:39.760Z,1.60
2022-07-31T13:45:08.550Z,1.67
2022-07-31T13:47:50.687Z,1.80
2022-07-31T13:50:18.536Z,1.80
2022-07-31T13:52:44.962Z,1.60
2022-07-31T13:55:11.437Z,1.50
2022-07-31T13:57:37.832Z,1.40
2022-07-31T14:00:05.331Z,1.40
2022-07-31T14:02:31.812Z,1.60
2022-07-31T14:04:58.317Z,1.50
2022-07-31T14:07:45.354Z,1.67
2022-07-31T14:10:12.683Z,1.60
2022-07-31T14:12:40.727Z,1.45
2022-07-31T14:15:08.442Z,1.30
2022-07-31T14:17:34.869Z,1.35
2022-07-31T14:20:01.417Z,1.50
2022-07-31T14:22:29.387Z,1.50
2022-07-31T14:24:55.789Z,1.50
2022-07-31T14:27:22.230Z,1.48
2022-07-31T14:29:48.908Z,1.50
2022-07-31T14:32:15.383Z,1.45
2022-07-31T14:34:41.743Z,1.23
2022-07-31T14:37:08.381Z,1.38
2022-07-31T14:39:34.774Z,1.42
2022-07-31T14:42:01.354Z,1.10
2022-07-31T14:44:29.400Z,1.30
2022-07-31T14:46:56.100Z,1.35
2022-07-31T14:49:22.540Z,1.58
2022-07-31T14:51:49.004Z,1.33
2022-07-31T14:54:15.428Z,1.05
2022-07-31T14:59:29.483Z,1.23
2022-07-31T15:01:56.338Z,1.40
2022-07-31T15:04:22.934Z,1.10
2022-07-31T15:06:56.147Z,1.20
2022-07-31T15:09:26.109Z,1.15
2022-07-31T15:11:59.736Z,1.10
2022-07-31T15:14:28.378Z,1.20
2022-07-31T15:16:54.744Z,1.20
2022-07-31T15:19:21.107Z,1.42
2022-07-31T15:22:15.879Z,1.10
2022-07-31T15:24:34.019Z,1.00
2022-07-31T15:27:00.379Z,1.08
2022-07-31T15:30:04.906Z,1.10
2022-07-31T15:32:13.185Z,1.10
2022-07-31T15:34:39.555Z,1.20
2022-07-31T15:37:06.300Z,1.10
2022-07-31T15:39:32.970Z,1.17
2022-07-31T15:41:59.516Z,1.30
2022-07-31T15:44:26.009Z,1.02
2022-07-31T15:46:52.372Z,1.10
2022-07-31T15:49:18.948Z,1.25
2022-07-31T15:51:45.645Z,1.30
2022-07-31T15:54:12.194Z,1.10
2022-07-31T15:56:38.596Z,1.20
2022-07-31T15:59:05.062Z,1.40
2022-07-31T16:01:31.492Z,1.20
2022-07-31T16:03:57.841Z,1.30
2022-07-31T16:06:28.180Z,1.13
2022-07-31T16:08:58.488Z,1.15
2022-07-31T16:11:24.831Z,1.20
2022-07-31T16:14:11.165Z,1.20
2022-07-31T16:16:37.668Z,1.20
2022-07-31T16:19:04.240Z,1.40
2022-07-31T16:21:30.644Z,1.20
2022-07-31T16:23:57.036Z,1.48
2022-07-31T16:26:23.452Z,1.10
2022-07-31T16:28:53.911Z,1.20
2022-07-31T16:31:29.975Z,1.10
2022-07-31T16:33:57.118Z,1.20
2022-07-31T16:36:24.653Z,1.20
2022-07-31T16:39:18.551Z,1.30
2022-07-31T16:41:38.803Z,1.30
2022-07-31T16:44:21.137Z,1.40
2022-07-31T16:46:51.322Z,1.30
2022-07-31T16:49:35.593Z,1.20
2022-07-31T16:52:03.108Z,1.52
2022-07-31T16:54:29.551Z,1.40
2022-07-31T16:56:55.930Z,1.40
2022-07-31T16:59:22.352Z,1.13
2022-07-31T17:01:57.855Z,1.15
2022-07-31T17:04:27.462Z,1.30
2022-07-31T17:06:54.451Z,1.13
2022-07-31T17:09:21.299Z,1.10
2022-07-31T17:11:54.488Z,1.10
2022-07-31T17:14:25.759Z,1.20
2022-07-31T17:16:53.628Z,1.17
2022-07-31T17:19:41.466Z,1.00
2022-07-31T17:22:11.852Z,1.05
2022-07-31T17:24:50.400Z,1.10
2022-07-31T17:27:17.985Z,1.20
2022-07-31T17:29:44.523Z,1.30
2022-07-31T17:32:11.245Z,1.20
2022-07-31T17:34:38.431Z,1.10
2022-07-31T17:37:05.263Z,1.25
2022-07-31T17:39:32.090Z,1.52
2022-07-31T17:41:59.554Z,0.98
2022-07-31T17:44:26.187Z,1.20
2022-07-31T17:46:54.072Z,1.25
2022-07-31T17:49:20.972Z,1.23
2022-07-31T17:51:59.101Z,1.25
2022-07-31T17:54:34.439Z,1.33
2022-07-31T17:57:01.275Z,1.20
2022-07-31T17:59:28.810Z,1.33
2022-07-31T18:02:03.289Z,1.20
2022-07-31T18:04:33.516Z,1.30
2022-07-31T18:07:01.463Z,1.23
2022-07-31T18:09:28.570Z,1.30
2022-07-31T18:11:55.625Z,1.23
2022-07-31T18:14:24.649Z,1.23
2022-07-31T18:16:51.688Z,1.30
2022-07-31T18:19:18.277Z,1.23
2022-07-31T18:21:44.638Z,1.17
2022-07-31T18:24:10.969Z,1.30
2022-07-31T18:26:37.534Z,1.10
2022-07-31T18:29:04.351Z,1.23
2022-07-31T18:31:34.240Z,1.50
2022-07-31T18:34:03.340Z,1.20
2022-07-31T18:36:29.792Z,1.58
2022-07-31T18:38:57.534Z,1.50
2022-07-31T18:41:24.439Z,1.40
2022-07-31T18:43:50.887Z,1.60
2022-07-31T18:46:17.631Z,1.45
2022-07-31T18:48:44.346Z,1.63
2022-07-31T18:51:10.888Z,1.42
2022-07-31T18:53:37.365Z,1.65
2022-07-31T18:56:04.037Z,1.50
2022-07-31T18:58:30.712Z,1.50
2022-07-31T19:00:57.143Z,1.50
2022-07-31T19:03:25.592Z,1.60
2022-07-31T19:05:53.185Z,1.70
2022-07-31T19:08:20.469Z,1.60
2022-07-31T19:10:49.111Z,1.70
2022-07-31T19:13:18.815Z,2.05
2022-07-31T19:15:47.385Z,1.77
2022-07-31T19:18:15.189Z,1.75
2022-07-31T19:20:58.934Z,1.58
2022-07-31T19:23:31.356Z,2.25
2022-07-31T19:26:03.987Z,1.52
2022-07-31T19:28:34.654Z,1.60
2022-07-31T19:31:01.032Z,1.70
2022-07-31T19:33:27.548Z,1.70
2022-07-31T19:35:58.851Z,1.65
2022-07-31T19:38:27.520Z,1.90
2022-07-31T19:40:53.994Z,1.75
2022-07-31T19:43:20.603Z,1.50
2022-07-31T19:46:09.341Z,1.73
2022-07-31T19:48:35.811Z,1.73
2022-07-31T19:51:02.572Z,1.60
2022-07-31T19:53:29.107Z,1.63
2022-07-31T19:55:55.527Z,1.60
2022-07-31T19:58:21.935Z,1.52
2022-07-31T20:00:48.380Z,1.35
2022-07-31T20:03:14.898Z,1.60
2022-07-31T20:05:41.300Z,1.40
2022-07-31T20:08:07.853Z,1.33
2022-07-31T20:10:34.238Z,1.33
2022-07-31T20:13:00.656Z,1.50
2022-07-31T20:15:27.389Z,1.40
2022-07-31T20:18:23.484Z,1.38
2022-07-31T20:21:00.101Z,1.55
2022-07-31T20:23:27.773Z,1.30
2022-07-31T20:25:54.419Z,1.40
2022-07-31T20:28:21.266Z,1.40
2022-07-31T20:30:47.666Z,1.40
2022-07-31T20:33:14.574Z,1.30
2022-07-31T20:35:49.122Z,1.63
2022-07-31T20:38:20.933Z,1.60
2022-07-31T20:40:54.138Z,1.50
2022-07-31T20:43:26.766Z,1.40
2022-07-31T20:45:56.886Z,1.65
2022-07-31T20:48:24.583Z,1.50
2022-07-31T20:50:51.543Z,1.55
2022-07-31T20:53:19.165Z,1.60
2022-07-31T20:55:47.297Z,1.27
2022-07-31T20:58:14.052Z,1.50
2022-07-31T21:00:41.215Z,1.67
2022-07-31T21:03:07.676Z,1.58
2022-07-31T21:05:34.003Z,1.70
2022-07-31T21:08:00.388Z,1.60
2022-07-31T21:10:29.695Z,1.73
2022-07-31T21:12:56.612Z,1.67
2022-07-31T21:15:43.410Z,1.50
2022-07-31T21:18:09.988Z,1.60
2022-07-31T21:20:52.246Z,1.77
2022-07-31T21:23:25.004Z,1.40
2022-07-31T21:25:53.364Z,2.22
2022-07-31T21:28:20.803Z,1.77
2022-07-31T21:30:47.572Z,1.50
2022-07-31T21:33:14.351Z,1.60
2022-07-31T21:35:41.259Z,1.52
2022-07-31T21:38:11.967Z,2.00
2022-07-31T21:40:40.128Z,1.80
2022-07-31T21:43:06.963Z,1.60
2022-07-31T21:45:50.879Z,1.90
2022-07-31T21:48:22.599Z,1.90
2022-07-31T21:50:49.042Z,1.90
2022-07-31T21:53:15.703Z,1.90
2022-07-31T21:55:42.255Z,2.28
2022-07-31T21:58:09.228Z,1.60
2022-07-31T22:00:35.982Z,2.20
2022-07-31T22:03:02.839Z,1.83
2022-07-31T22:05:48.914Z,1.70
2022-07-31T22:08:15.356Z,1.67
2022-07-31T22:10:41.994Z,1.70
2022-07-31T22:13:08.832Z,1.58
2022-07-31T22:15:51.583Z,1.60
2022-07-31T22:18:22.115Z,1.50
2022-07-31T22:20:48.605Z,1.45
2022-07-31T22:23:15.385Z,1.63
2022-07-31T22:25:42.851Z,1.42
2022-07-31T22:28:09.654Z,1.63
2022-07-31T22:30:36.232Z,1.40
2022-07-31T22:33:04.847Z,1.45
2022-07-31T22:35:32.445Z,1.50
2022-07-31T22:37:58.895Z,1.65
2022-07-31T22:40:25.889Z,2.58
2022-07-31T22:42:57.643Z,1.40
2022-07-31T22:45:25.212Z,1.60
2022-07-31T22:47:51.778Z,1.38
2022-07-31T22:50:18.420Z,1.60
2022-07-31T22:52:44.815Z,1.35
2022-07-31T22:55:12.107Z,1.50
2022-07-31T22:57:43.388Z,1.27
2022-07-31T23:00:14.926Z,1.50
2022-07-31T23:02:42.430Z,1.40
2022-07-31T23:05:10.000Z,1.42
2022-07-31T23:07:37.176Z,1.75
2022-07-31T23:10:05.535Z,1.73
2022-07-31T23:12:31.930Z,1.40
2022-07-31T23:14:58.264Z,1.40
2022-07-31T23:17:24.838Z,1.40
2022-07-31T23:19:53.956Z,1.52
2022-07-31T23:22:33.977Z,1.50
2022-07-31T23:25:08.652Z,1.30
2022-07-31T23:27:35.294Z,1.20
2022-07-31T23:30:01.795Z,1.13
2022-07-31T23:32:28.364Z,1.40
2022-07-31T23:34:54.783Z,1.40
2022-07-31T23:37:21.506Z,1.15
2022-07-31T23:39:47.859Z,1.52
2022-07-31T23:42:32.718Z,1.30
2022-07-31T23:44:59.088Z,1.33
2022-07-31T23:47:44.485Z,1.30
2022-07-31T23:50:11.896Z,1.38
2022-07-31T23:52:38.347Z,1.58
2022-07-31T23:55:05.121Z,1.30
2022-07-31T23:57:34.502Z,1.30
